createdAt,value
2018-09-09T00:03:57.755Z,99864.76
2018-09-09T00:10:02.594Z,99875.40
2018-09-09T00:16:07.837Z,99875.95
2018-09-09T00:22:13.987Z,99876.17
2018-09-09T00:28:19.005Z,99877.98
2018-09-09T00:34:24.444Z,99887.63
2018-09-09T00:40:29.118Z,99856.36
2018-09-09T00:46:34.013Z,99860.14
2018-09-09T00:52:44.025Z,99868.30
2018-09-09T00:58:48.802Z,99860.73
2018-09-09T01:04:53.568Z,99841.47
2018-09-09T01:10:58.246Z,99832.36
2018-09-09T01:17:03.279Z,99847.11
2018-09-09T01:23:08.249Z,99840.05
2018-09-09T01:29:13.287Z,99841.14
2018-09-09T01:35:18.071Z,99838.36
2018-09-09T01:41:23.205Z,99845.32
2018-09-09T01:47:27.922Z,99860.77
2018-09-09T01:53:32.632Z,99854.22
2018-09-09T01:59:37.505Z,99863.73
2018-09-09T02:05:42.334Z,99860.38
2018-09-09T02:11:47.104Z,99864.75
2018-09-09T02:17:51.921Z,99866.42
2018-09-09T02:23:56.834Z,99860.06
2018-09-09T02:30:01.756Z,99841.08
2018-09-09T02:36:06.574Z,99846.34
2018-09-09T02:42:11.981Z,99854.70
2018-09-09T02:48:16.955Z,99854.25
2018-09-09T02:54:21.721Z,99832.46
2018-09-09T03:00:26.490Z,99824.67
2018-09-09T03:06:31.315Z,99831.13
2018-09-09T03:12:36.027Z,99830.29
2018-09-09T03:18:42.586Z,99839.86
2018-09-09T03:24:47.277Z,99833.86
2018-09-09T03:30:52.205Z,99820.97
2018-09-09T03:36:56.947Z,99816.95
2018-09-09T03:43:02.432Z,99824.55
2018-09-09T03:49:07.344Z,99828.98
2018-09-09T03:55:12.107Z,99827.94
2018-09-09T04:01:17.127Z,99823.03
2018-09-09T04:07:21.802Z,99833.66
2018-09-09T04:13:26.513Z,99839.06
2018-09-09T04:19:31.303Z,99843.24
2018-09-09T04:25:36.124Z,99861.56
2018-09-09T04:31:41.900Z,99863.43
2018-09-09T04:37:46.615Z,99860.98
2018-09-09T04:43:51.573Z,99866.59
2018-09-09T04:49:56.394Z,99873.63
2018-09-09T04:56:01.187Z,99879.87
2018-09-09T05:02:06.076Z,99877.56
2018-09-09T05:08:10.977Z,99891.27
2018-09-09T05:14:16.169Z,99887.96
2018-09-09T05:20:20.890Z,99880.59
2018-09-09T05:26:25.639Z,99875.05
2018-09-09T05:32:30.337Z,99872.73
2018-09-09T05:38:35.058Z,99871.80
2018-09-09T05:44:40.276Z,99882.89
2018-09-09T05:50:45.924Z,99891.14
2018-09-09T05:56:50.744Z,99884.52
2018-09-09T06:02:55.481Z,99884.16
2018-09-09T06:09:00.159Z,99884.69
2018-09-09T06:15:05.128Z,99889.50
2018-09-09T06:21:10.161Z,99901.11
2018-09-09T06:27:15.078Z,99922.17
2018-09-09T06:33:20.173Z,99936.30
2018-09-09T06:39:25.213Z,99940.22
2018-09-09T06:45:29.929Z,99930.58
2018-09-09T06:51:34.903Z,99943.70
2018-09-09T06:57:41.152Z,99938.36
2018-09-09T07:03:46.271Z,99934.89
2018-09-09T07:09:51.355Z,99919.63
2018-09-09T07:15:56.178Z,99917.40
2018-09-09T07:22:00.916Z,99928.55
2018-09-09T07:28:05.650Z,99933.27
2018-09-09T07:34:13.111Z,99928.26
2018-09-09T07:40:17.954Z,99933.80
2018-09-09T07:46:22.736Z,99935.84
2018-09-09T07:52:27.784Z,99932.66
2018-09-09T07:58:32.623Z,99936.91
2018-09-09T08:04:37.425Z,99937.55
2018-09-09T08:10:42.287Z,99938.83
2018-09-09T08:16:47.187Z,99945.01
2018-09-09T08:22:51.943Z,99947.54
2018-09-09T08:28:56.774Z,99945.06
2018-09-09T08:35:01.569Z,99939.11
2018-09-09T08:41:07.552Z,99939.77
2018-09-09T08:47:12.792Z,99949.29
2018-09-09T08:53:17.579Z,99947.89
2018-09-09T08:59:22.367Z,99951.20
2018-09-09T09:05:27.198Z,99952.88
2018-09-09T09:11:31.938Z,99949.90
2018-09-09T09:17:36.700Z,99950.09
2018-09-09T09:23:42.179Z,99942.27
2018-09-09T09:29:52.369Z,99932.28
2018-09-09T09:35:57.091Z,99940.45
2018-09-09T09:42:01.837Z,99924.38
2018-09-09T09:48:06.742Z,99930.53
2018-09-09T09:54:12.885Z,99929.02
2018-09-09T10:00:22.743Z,99930.90
2018-09-09T10:06:27.459Z,99924.75
2018-09-09T10:12:32.195Z,99912.56
2018-09-09T10:18:36.930Z,99907.84
2018-09-09T10:24:42.234Z,99921.11
2018-09-09T10:30:47.065Z,99919.79
2018-09-09T10:36:51.884Z,99903.29
2018-09-09T10:42:56.696Z,99894.94
2018-09-09T10:49:01.498Z,99887.97
2018-09-09T10:55:06.371Z,99877.25
2018-09-09T11:01:11.363Z,99878.37
2018-09-09T11:07:16.664Z,99873.92
2018-09-09T11:13:21.571Z,99882.41
2018-09-09T11:19:26.541Z,99887.87
2018-09-09T11:25:31.287Z,99886.63
2018-09-09T11:31:36.487Z,99890.64
2018-09-09T11:37:43.880Z,99876.84
2018-09-09T11:43:49.116Z,99880.27
2018-09-09T11:49:53.721Z,99883.33
2018-09-09T11:55:58.768Z,99888.92
2018-09-09T12:02:03.764Z,99881.89
2018-09-09T12:08:09.114Z,99868.89
2018-09-09T12:14:14.100Z,99868.94
2018-09-09T12:20:19.038Z,99866.72
2018-09-09T12:26:24.011Z,99868.47
2018-09-09T12:32:29.075Z,99869.50
2018-09-09T12:38:34.029Z,99862.48
2018-09-09T12:44:44.023Z,99869.34
2018-09-09T12:50:48.972Z,99867.23
2018-09-09T12:56:53.784Z,99870.61
2018-09-09T13:02:58.525Z,99865.22
2018-09-09T13:09:03.583Z,99873.14
2018-09-09T13:15:08.364Z,99875.47
2018-09-09T13:21:13.481Z,99885.32
2018-09-09T13:27:18.225Z,99886.24
2018-09-09T13:33:22.988Z,99885.00
2018-09-09T13:39:27.739Z,99889.90
2018-09-09T13:45:32.471Z,99883.66
2018-09-09T13:51:37.697Z,99886.30
2018-09-09T13:57:42.717Z,99898.83
2018-09-09T14:03:47.542Z,99895.92
2018-09-09T14:09:52.381Z,99890.62
2018-09-09T14:15:57.118Z,99884.16
2018-09-09T14:22:01.947Z,99881.41
2018-09-09T14:28:06.832Z,99879.35
2018-09-09T14:34:12.084Z,99890.40
2018-09-09T14:40:17.406Z,99878.41
2018-09-09T14:46:22.322Z,99876.36
2018-09-09T14:52:27.068Z,99880.38
2018-09-09T14:58:31.960Z,99875.20
2018-09-09T15:04:36.850Z,99865.90
2018-09-09T15:10:42.769Z,99865.41
2018-09-09T15:16:47.837Z,99868.17
2018-09-09T15:22:52.660Z,99864.95
2018-09-09T15:28:57.800Z,99854.49
2018-09-09T15:35:02.703Z,99855.71
2018-09-09T15:41:07.400Z,99848.92
2018-09-09T15:47:12.343Z,99844.64
2018-09-09T15:53:17.277Z,99850.81
2018-09-09T15:59:22.138Z,99841.53
2018-09-09T16:05:27.097Z,99845.34
2018-09-09T16:11:32.286Z,99838.23
2018-09-09T16:17:37.057Z,99846.22
2018-09-09T16:23:43.345Z,99845.08
2018-09-09T16:29:48.142Z,99855.77
2018-09-09T16:35:53.041Z,99858.63
2018-09-09T16:41:58.151Z,99860.56
2018-09-09T16:48:03.070Z,99855.89
2018-09-09T16:54:08.076Z,99856.48
2018-09-09T17:00:13.286Z,99851.32
2018-09-09T17:06:18.460Z,99847.03
2018-09-09T17:12:23.359Z,99847.84
2018-09-09T17:18:28.570Z,99849.41
2018-09-09T17:24:33.595Z,99849.03
2018-09-09T17:30:38.631Z,99845.67
2018-09-09T17:36:43.911Z,99849.33
2018-09-09T17:42:49.080Z,99853.33
2018-09-09T17:48:53.873Z,99858.07
2018-09-09T17:54:58.896Z,99868.16
2018-09-09T18:01:03.794Z,99871.98
2018-09-09T18:07:09.480Z,99875.35
2018-09-09T18:13:15.103Z,99869.65
2018-09-09T18:19:19.835Z,99883.91
2018-09-09T18:25:24.652Z,99882.62
2018-09-09T18:31:29.761Z,99888.77
2018-09-09T18:37:34.491Z,99882.06
2018-09-09T18:43:39.460Z,99892.33
2018-09-09T18:49:44.296Z,99895.37
2018-09-09T18:55:49.350Z,99904.80
2018-09-09T19:01:55.025Z,99908.53
2018-09-09T19:07:59.813Z,99906.44
2018-09-09T19:14:05.108Z,99921.42
2018-09-09T19:20:11.667Z,99918.28
2018-09-09T19:26:16.529Z,99924.48
2018-09-09T19:32:21.432Z,99919.11
2018-09-09T19:38:26.465Z,99928.08
2018-09-09T19:44:31.305Z,99930.90
2018-09-09T19:50:36.186Z,99918.84
2018-09-09T19:56:40.935Z,99918.20
2018-09-09T20:02:46.136Z,99925.63
2018-09-09T20:08:50.911Z,99917.34
2018-09-09T20:14:55.965Z,99919.90
2018-09-09T20:21:01.044Z,99914.02
2018-09-09T20:27:05.902Z,99912.08
2018-09-09T20:33:11.859Z,99922.91
2018-09-09T20:39:16.820Z,99940.30
2018-09-09T20:45:21.576Z,99940.59
2018-09-09T20:51:26.305Z,99948.37
2018-09-09T20:57:31.010Z,99955.64
2018-09-09T21:03:35.860Z,99949.63
2018-09-09T21:09:41.329Z,99950.19
2018-09-09T21:15:46.132Z,99946.66
2018-09-09T21:21:50.898Z,99946.91
2018-09-09T21:27:55.632Z,99947.66
2018-09-09T21:34:00.370Z,99940.17
2018-09-09T21:40:05.254Z,99934.21
2018-09-09T21:46:10.303Z,99936.20
2018-09-09T21:52:14.989Z,99939.87
2018-09-09T21:58:19.798Z,99936.25
2018-09-09T22:04:24.667Z,99941.03
2018-09-09T22:10:29.778Z,99940.90
2018-09-09T22:16:34.885Z,99940.98
2018-09-09T22:22:39.997Z,99944.55
2018-09-09T22:28:45.379Z,99951.28
2018-09-09T22:34:50.120Z,99946.40
2018-09-09T22:40:54.788Z,99950.72
2018-09-09T22:46:59.639Z,99948.55
2018-09-09T22:53:04.622Z,99951.96
2018-09-09T22:59:09.422Z,99947.14
2018-09-09T23:05:14.413Z,99940.24
2018-09-09T23:11:19.348Z,99934.06
2018-09-09T23:17:24.164Z,99933.33
2018-09-09T23:23:28.878Z,99936.95
2018-09-09T23:29:33.719Z,99931.42
2018-09-09T23:35:38.556Z,99931.63
2018-09-09T23:41:43.722Z,99933.52
2018-09-09T23:47:48.525Z,99933.59
2018-09-09T23:53:53.359Z,99939.41
2018-09-09T23:59:58.253Z,99940.14
